sensor_id;sensor_type;location;lat;lon;timestamp;temperature;humidity
43999;DHT22;51319;52.162;5.302;2023-03-12T00:00:14;1.70;85.40
43999;DHT22;51319;52.162;5.302;2023-03-12T00:02:41;1.80;84.50
43999;DHT22;51319;52.162;5.302;2023-03-12T00:05:08;1.80;83.60
43999;DHT22;51319;52.162;5.302;2023-03-12T00:07:35;1.90;83.00
43999;DHT22;51319;52.162;5.302;2023-03-12T00:10:04;1.90;82.00
43999;DHT22;51319;52.162;5.302;2023-03-12T00:12:31;1.90;81.30
43999;DHT22;51319;52.162;5.302;2023-03-12T00:14:58;1.90;80.90
43999;DHT22;51319;52.162;5.302;2023-03-12T00:17:25;2.00;80.50
43999;DHT22;51319;52.162;5.302;2023-03-12T00:19:53;2.00;80.00
43999;DHT22;51319;52.162;5.302;2023-03-12T00:22:20;2.00;79.80
43999;DHT22;51319;52.162;5.302;2023-03-12T00:24:52;2.00;79.60
43999;DHT22;51319;52.162;5.302;2023-03-12T00:27:19;2.00;79.20
43999;DHT22;51319;52.162;5.302;2023-03-12T00:29:46;2.10;79.00
43999;DHT22;51319;52.162;5.302;2023-03-12T00:32:13;2.10;78.80
43999;DHT22;51319;52.162;5.302;2023-03-12T00:34:40;2.10;78.50
43999;DHT22;51319;52.162;5.302;2023-03-12T00:37:08;2.10;78.30
43999;DHT22;51319;52.162;5.302;2023-03-12T00:39:35;2.10;78.70
43999;DHT22;51319;52.162;5.302;2023-03-12T00:42:02;2.10;77.80
43999;DHT22;51319;52.162;5.302;2023-03-12T00:44:29;2.20;77.60
43999;DHT22;51319;52.162;5.302;2023-03-12T00:46:56;2.20;77.40
43999;DHT22;51319;52.162;5.302;2023-03-12T00:49:22;2.20;77.30
43999;DHT22;51319;52.162;5.302;2023-03-12T00:51:49;2.10;77.20
43999;DHT22;51319;52.162;5.302;2023-03-12T00:54:16;2.10;77.20
43999;DHT22;51319;52.162;5.302;2023-03-12T00:56:43;2.10;77.20
43999;DHT22;51319;52.162;5.302;2023-03-12T00:59:13;2.00;77.30
43999;DHT22;51319;52.162;5.302;2023-03-12T01:01:40;2.00;77.40
43999;DHT22;51319;52.162;5.302;2023-03-12T01:04:07;1.90;77.40
43999;DHT22;51319;52.162;5.302;2023-03-12T01:06:34;1.90;77.60
43999;DHT22;51319;52.162;5.302;2023-03-12T01:09:03;1.80;77.80
43999;DHT22;51319;52.162;5.302;2023-03-12T01:11:31;1.80;78.00
43999;DHT22;51319;52.162;5.302;2023-03-12T01:13:59;1.80;78.10
43999;DHT22;51319;52.162;5.302;2023-03-12T01:16:27;1.90;78.20
43999;DHT22;51319;52.162;5.302;2023-03-12T01:18:57;1.90;78.30
43999;DHT22;51319;52.162;5.302;2023-03-12T01:21:25;1.90;78.20
43999;DHT22;51319;52.162;5.302;2023-03-12T01:23:52;1.90;78.20
43999;DHT22;51319;52.162;5.302;2023-03-12T01:26:20;1.90;78.20
43999;DHT22;51319;52.162;5.302;2023-03-12T01:28:47;1.90;78.20
43999;DHT22;51319;52.162;5.302;2023-03-12T01:31:16;1.90;78.30
43999;DHT22;51319;52.162;5.302;2023-03-12T01:33:48;1.90;78.20
43999;DHT22;51319;52.162;5.302;2023-03-12T01:36:21;2.00;78.20
43999;DHT22;51319;52.162;5.302;2023-03-12T01:38:53;2.00;78.20
43999;DHT22;51319;52.162;5.302;2023-03-12T01:41:22;2.00;78.20
43999;DHT22;51319;52.162;5.302;2023-03-12T01:43:49;2.00;78.10
43999;DHT22;51319;52.162;5.302;2023-03-12T01:46:35;2.10;78.20
43999;DHT22;51319;52.162;5.302;2023-03-12T01:49:29;2.10;78.10
43999;DHT22;51319;52.162;5.302;2023-03-12T01:54:54;2.10;78.10
43999;DHT22;51319;52.162;5.302;2023-03-12T01:57:44;2.10;78.20
43999;DHT22;51319;52.162;5.302;2023-03-12T02:00:16;2.20;78.20
43999;DHT22;51319;52.162;5.302;2023-03-12T02:02:46;2.20;78.20
43999;DHT22;51319;52.162;5.302;2023-03-12T02:05:31;2.20;78.20
43999;DHT22;51319;52.162;5.302;2023-03-12T02:07:59;2.20;78.30
43999;DHT22;51319;52.162;5.302;2023-03-12T02:10:26;2.20;78.40
43999;DHT22;51319;52.162;5.302;2023-03-12T02:12:53;2.20;78.30
43999;DHT22;51319;52.162;5.302;2023-03-12T02:15:20;2.30;78.30
43999;DHT22;51319;52.162;5.302;2023-03-12T02:17:47;2.20;78.20
43999;DHT22;51319;52.162;5.302;2023-03-12T02:20:27;2.30;78.40
43999;DHT22;51319;52.162;5.302;2023-03-12T02:25:43;2.30;78.00
43999;DHT22;51319;52.162;5.302;2023-03-12T02:28:14;2.40;78.10
43999;DHT22;51319;52.162;5.302;2023-03-12T02:30:45;2.40;78.10
43999;DHT22;51319;52.162;5.302;2023-03-12T02:33:13;2.40;78.00
43999;DHT22;51319;52.162;5.302;2023-03-12T02:35:45;2.50;77.70
43999;DHT22;51319;52.162;5.302;2023-03-12T02:38:32;2.50;77.40
43999;DHT22;51319;52.162;5.302;2023-03-12T02:41:13;2.50;77.20
43999;DHT22;51319;52.162;5.302;2023-03-12T02:43:44;2.60;77.20
43999;DHT22;51319;52.162;5.302;2023-03-12T02:46:11;2.60;77.20
43999;DHT22;51319;52.162;5.302;2023-03-12T02:48:39;2.60;77.20
43999;DHT22;51319;52.162;5.302;2023-03-12T02:51:07;2.60;77.30
43999;DHT22;51319;52.162;5.302;2023-03-12T02:53:33;2.70;77.20
43999;DHT22;51319;52.162;5.302;2023-03-12T02:56:00;2.70;77.20
43999;DHT22;51319;52.162;5.302;2023-03-12T02:58:27;2.60;77.10
43999;DHT22;51319;52.162;5.302;2023-03-12T03:00:54;2.60;77.10
43999;DHT22;51319;52.162;5.302;2023-03-12T03:03:21;2.60;77.20
43999;DHT22;51319;52.162;5.302;2023-03-12T03:05:48;2.60;77.00
43999;DHT22;51319;52.162;5.302;2023-03-12T03:08:15;2.60;77.00
43999;DHT22;51319;52.162;5.302;2023-03-12T03:10:42;2.70;77.00
43999;DHT22;51319;52.162;5.302;2023-03-12T03:13:09;2.60;77.00
43999;DHT22;51319;52.162;5.302;2023-03-12T03:15:36;2.60;76.90
43999;DHT22;51319;52.162;5.302;2023-03-12T03:18:04;2.60;76.90
43999;DHT22;51319;52.162;5.302;2023-03-12T03:20:31;2.60;76.90
43999;DHT22;51319;52.162;5.302;2023-03-12T03:22:58;2.60;76.90
43999;DHT22;51319;52.162;5.302;2023-03-12T03:25:25;2.60;77.00
43999;DHT22;51319;52.162;5.302;2023-03-12T03:27:52;2.60;77.10
43999;DHT22;51319;52.162;5.302;2023-03-12T03:30:19;2.60;77.20
43999;DHT22;51319;52.162;5.302;2023-03-12T03:32:48;2.60;77.20
43999;DHT22;51319;52.162;5.302;2023-03-12T03:35:15;2.70;77.30
43999;DHT22;51319;52.162;5.302;2023-03-12T03:37:42;2.70;77.20
43999;DHT22;51319;52.162;5.302;2023-03-12T03:40:10;2.60;77.20
43999;DHT22;51319;52.162;5.302;2023-03-12T03:42:38;2.60;77.20
43999;DHT22;51319;52.162;5.302;2023-03-12T03:45:06;2.70;77.40
43999;DHT22;51319;52.162;5.302;2023-03-12T03:47:33;2.60;77.30
43999;DHT22;51319;52.162;5.302;2023-03-12T03:50:00;2.70;77.40
43999;DHT22;51319;52.162;5.302;2023-03-12T03:52:27;2.70;77.40
43999;DHT22;51319;52.162;5.302;2023-03-12T03:54:54;2.70;77.30
43999;DHT22;51319;52.162;5.302;2023-03-12T03:57:22;2.70;77.20
43999;DHT22;51319;52.162;5.302;2023-03-12T03:59:49;2.70;77.30
43999;DHT22;51319;52.162;5.302;2023-03-12T04:02:16;2.70;77.40
43999;DHT22;51319;52.162;5.302;2023-03-12T04:04:44;2.70;78.00
43999;DHT22;51319;52.162;5.302;2023-03-12T04:07:11;2.70;77.40
43999;DHT22;51319;52.162;5.302;2023-03-12T04:09:37;2.80;77.40
43999;DHT22;51319;52.162;5.302;2023-03-12T04:12:04;2.80;77.30
43999;DHT22;51319;52.162;5.302;2023-03-12T04:14:31;2.90;77.10
43999;DHT22;51319;52.162;5.302;2023-03-12T04:16:58;2.90;77.00
43999;DHT22;51319;52.162;5.302;2023-03-12T04:19:25;2.90;77.20
43999;DHT22;51319;52.162;5.302;2023-03-12T04:21:52;2.90;77.30
43999;DHT22;51319;52.162;5.302;2023-03-12T04:24:19;3.00;77.60
43999;DHT22;51319;52.162;5.302;2023-03-12T04:26:46;3.00;78.30
43999;DHT22;51319;52.162;5.302;2023-03-12T04:29:13;3.00;78.60
43999;DHT22;51319;52.162;5.302;2023-03-12T04:31:40;3.00;78.80
43999;DHT22;51319;52.162;5.302;2023-03-12T04:34:06;3.00;79.40
43999;DHT22;51319;52.162;5.302;2023-03-12T04:36:35;3.00;79.80
43999;DHT22;51319;52.162;5.302;2023-03-12T04:39:02;3.00;80.30
43999;DHT22;51319;52.162;5.302;2023-03-12T04:41:33;3.00;80.80
43999;DHT22;51319;52.162;5.302;2023-03-12T04:44:01;2.90;81.20
43999;DHT22;51319;52.162;5.302;2023-03-12T04:46:28;2.90;81.60
43999;DHT22;51319;52.162;5.302;2023-03-12T04:48:55;2.90;82.40
43999;DHT22;51319;52.162;5.302;2023-03-12T04:51:23;2.80;82.90
43999;DHT22;51319;52.162;5.302;2023-03-12T04:53:50;2.80;83.70
43999;DHT22;51319;52.162;5.302;2023-03-12T04:56:17;2.80;84.50
43999;DHT22;51319;52.162;5.302;2023-03-12T04:58:45;2.70;85.10
43999;DHT22;51319;52.162;5.302;2023-03-12T05:01:30;2.70;85.70
43999;DHT22;51319;52.162;5.302;2023-03-12T05:03:58;2.70;86.50
43999;DHT22;51319;52.162;5.302;2023-03-12T05:06:25;2.60;87.00
43999;DHT22;51319;52.162;5.302;2023-03-12T05:08:52;2.70;87.50
43999;DHT22;51319;52.162;5.302;2023-03-12T05:11:19;2.60;88.00
43999;DHT22;51319;52.162;5.302;2023-03-12T05:13:46;2.60;88.50
43999;DHT22;51319;52.162;5.302;2023-03-12T05:16:14;2.60;89.10
43999;DHT22;51319;52.162;5.302;2023-03-12T05:18:42;2.60;89.60
43999;DHT22;51319;52.162;5.302;2023-03-12T05:21:15;2.60;90.00
43999;DHT22;51319;52.162;5.302;2023-03-12T05:23:42;2.60;90.10
43999;DHT22;51319;52.162;5.302;2023-03-12T05:26:21;2.60;90.20
43999;DHT22;51319;52.162;5.302;2023-03-12T05:28:48;2.60;90.40
43999;DHT22;51319;52.162;5.302;2023-03-12T05:31:16;2.70;90.60
43999;DHT22;51319;52.162;5.302;2023-03-12T05:33:43;2.60;90.60
43999;DHT22;51319;52.162;5.302;2023-03-12T05:36:10;2.60;90.80
43999;DHT22;51319;52.162;5.302;2023-03-12T05:38:38;2.70;91.00
43999;DHT22;51319;52.162;5.302;2023-03-12T05:41:05;2.70;91.00
43999;DHT22;51319;52.162;5.302;2023-03-12T05:43:32;2.70;91.10
43999;DHT22;51319;52.162;5.302;2023-03-12T05:46:01;2.70;91.20
43999;DHT22;51319;52.162;5.302;2023-03-12T05:48:29;2.70;91.20
43999;DHT22;51319;52.162;5.302;2023-03-12T05:50:56;2.70;91.20
43999;DHT22;51319;52.162;5.302;2023-03-12T05:53:23;2.80;91.30
43999;DHT22;51319;52.162;5.302;2023-03-12T05:55:50;2.80;91.30
43999;DHT22;51319;52.162;5.302;2023-03-12T05:58:17;2.80;91.40
43999;DHT22;51319;52.162;5.302;2023-03-12T06:00:44;2.80;91.30
43999;DHT22;51319;52.162;5.302;2023-03-12T06:03:11;2.90;91.30
43999;DHT22;51319;52.162;5.302;2023-03-12T06:05:39;2.90;91.30
43999;DHT22;51319;52.162;5.302;2023-03-12T06:08:06;2.90;91.30
43999;DHT22;51319;52.162;5.302;2023-03-12T06:10:33;2.90;91.30
43999;DHT22;51319;52.162;5.302;2023-03-12T06:13:00;2.90;91.20
43999;DHT22;51319;52.162;5.302;2023-03-12T06:15:27;2.90;91.20
43999;DHT22;51319;52.162;5.302;2023-03-12T06:17:54;2.90;91.20
43999;DHT22;51319;52.162;5.302;2023-03-12T06:20:21;2.90;91.30
43999;DHT22;51319;52.162;5.302;2023-03-12T06:22:48;2.90;91.40
43999;DHT22;51319;52.162;5.302;2023-03-12T06:25:15;2.90;91.50
43999;DHT22;51319;52.162;5.302;2023-03-12T06:27:42;2.90;91.60
43999;DHT22;51319;52.162;5.302;2023-03-12T06:30:09;2.90;91.90
43999;DHT22;51319;52.162;5.302;2023-03-12T06:32:36;2.90;92.10
43999;DHT22;51319;52.162;5.302;2023-03-12T06:35:03;2.90;92.30
43999;DHT22;51319;52.162;5.302;2023-03-12T06:37:31;2.90;92.50
43999;DHT22;51319;52.162;5.302;2023-03-12T06:39:59;2.80;92.70
43999;DHT22;51319;52.162;5.302;2023-03-12T06:42:26;2.90;92.90
43999;DHT22;51319;52.162;5.302;2023-03-12T06:44:53;2.90;93.10
43999;DHT22;51319;52.162;5.302;2023-03-12T06:47:20;2.90;93.30
43999;DHT22;51319;52.162;5.302;2023-03-12T06:49:47;2.90;93.50
43999;DHT22;51319;52.162;5.302;2023-03-12T06:52:14;2.80;93.70
43999;DHT22;51319;52.162;5.302;2023-03-12T06:54:41;2.80;94.10
43999;DHT22;51319;52.162;5.302;2023-03-12T06:57:08;2.80;94.30
43999;DHT22;51319;52.162;5.302;2023-03-12T06:59:35;2.80;94.60
43999;DHT22;51319;52.162;5.302;2023-03-12T07:02:01;2.80;94.90
43999;DHT22;51319;52.162;5.302;2023-03-12T07:04:28;2.80;95.20
43999;DHT22;51319;52.162;5.302;2023-03-12T07:06:55;2.90;95.40
43999;DHT22;51319;52.162;5.302;2023-03-12T07:09:22;2.90;95.70
43999;DHT22;51319;52.162;5.302;2023-03-12T07:11:49;2.90;96.00
43999;DHT22;51319;52.162;5.302;2023-03-12T07:14:16;2.90;96.40
43999;DHT22;51319;52.162;5.302;2023-03-12T07:16:42;3.00;96.70
43999;DHT22;51319;52.162;5.302;2023-03-12T07:19:09;3.00;97.00
43999;DHT22;51319;52.162;5.302;2023-03-12T07:21:36;3.00;97.30
43999;DHT22;51319;52.162;5.302;2023-03-12T07:24:03;3.00;97.60
43999;DHT22;51319;52.162;5.302;2023-03-12T07:26:34;3.00;97.80
43999;DHT22;51319;52.162;5.302;2023-03-12T07:29:02;3.00;98.10
43999;DHT22;51319;52.162;5.302;2023-03-12T07:31:29;3.10;98.50
43999;DHT22;51319;52.162;5.302;2023-03-12T07:33:56;3.10;98.70
43999;DHT22;51319;52.162;5.302;2023-03-12T07:36:23;3.10;99.00
43999;DHT22;51319;52.162;5.302;2023-03-12T07:38:50;3.10;99.30
43999;DHT22;51319;52.162;5.302;2023-03-12T07:41:17;3.10;99.50
43999;DHT22;51319;52.162;5.302;2023-03-12T07:43:44;3.10;99.80
43999;DHT22;51319;52.162;5.302;2023-03-12T07:46:11;3.10;99.90
43999;DHT22;51319;52.162;5.302;2023-03-12T07:48:38;3.10;99.90
43999;DHT22;51319;52.162;5.302;2023-03-12T07:51:09;3.20;99.90
43999;DHT22;51319;52.162;5.302;2023-03-12T07:53:37;3.20;99.90
43999;DHT22;51319;52.162;5.302;2023-03-12T07:56:04;3.20;99.90
43999;DHT22;51319;52.162;5.302;2023-03-12T07:58:32;3.20;99.90
43999;DHT22;51319;52.162;5.302;2023-03-12T08:01:02;3.20;99.90
43999;DHT22;51319;52.162;5.302;2023-03-12T08:03:29;3.20;99.90
43999;DHT22;51319;52.162;5.302;2023-03-12T08:06:01;3.30;99.90
43999;DHT22;51319;52.162;5.302;2023-03-12T08:08:29;3.30;99.90
43999;DHT22;51319;52.162;5.302;2023-03-12T08:10:58;3.30;99.90
43999;DHT22;51319;52.162;5.302;2023-03-12T08:13:26;3.40;99.90
43999;DHT22;51319;52.162;5.302;2023-03-12T08:15:53;3.40;99.90
43999;DHT22;51319;52.162;5.302;2023-03-12T08:18:21;3.50;99.90
43999;DHT22;51319;52.162;5.302;2023-03-12T08:20:52;3.50;99.90
43999;DHT22;51319;52.162;5.302;2023-03-12T08:23:20;3.50;99.90
43999;DHT22;51319;52.162;5.302;2023-03-12T08:25:48;3.60;99.90
43999;DHT22;51319;52.162;5.302;2023-03-12T08:28:16;3.60;99.90
43999;DHT22;51319;52.162;5.302;2023-03-12T08:30:47;3.70;99.90
43999;DHT22;51319;52.162;5.302;2023-03-12T08:33:14;3.70;99.90
43999;DHT22;51319;52.162;5.302;2023-03-12T08:35:41;3.80;99.90
43999;DHT22;51319;52.162;5.302;2023-03-12T08:38:08;3.80;99.90
43999;DHT22;51319;52.162;5.302;2023-03-12T08:40:35;3.90;99.90
43999;DHT22;51319;52.162;5.302;2023-03-12T08:43:02;3.90;99.90
43999;DHT22;51319;52.162;5.302;2023-03-12T08:45:30;4.00;99.90
43999;DHT22;51319;52.162;5.302;2023-03-12T08:47:56;4.00;99.90
43999;DHT22;51319;52.162;5.302;2023-03-12T08:50:23;4.00;99.90
43999;DHT22;51319;52.162;5.302;2023-03-12T08:52:54;4.10;99.90
43999;DHT22;51319;52.162;5.302;2023-03-12T08:55:22;4.10;99.90
43999;DHT22;51319;52.162;5.302;2023-03-12T08:57:48;4.20;99.90
43999;DHT22;51319;52.162;5.302;2023-03-12T09:00:15;4.20;99.90
43999;DHT22;51319;52.162;5.302;2023-03-12T09:02:44;4.30;99.90
43999;DHT22;51319;52.162;5.302;2023-03-12T09:05:12;4.40;99.90
43999;DHT22;51319;52.162;5.302;2023-03-12T09:07:39;4.40;99.90
43999;DHT22;51319;52.162;5.302;2023-03-12T09:10:06;4.50;99.90
43999;DHT22;51319;52.162;5.302;2023-03-12T09:12:33;4.60;99.90
43999;DHT22;51319;52.162;5.302;2023-03-12T09:15:00;4.70;99.90
43999;DHT22;51319;52.162;5.302;2023-03-12T09:17:30;4.80;99.90
43999;DHT22;51319;52.162;5.302;2023-03-12T09:19:57;4.90;99.90
43999;DHT22;51319;52.162;5.302;2023-03-12T09:22:24;4.90;99.90
43999;DHT22;51319;52.162;5.302;2023-03-12T09:24:51;5.00;99.90
43999;DHT22;51319;52.162;5.302;2023-03-12T09:27:18;5.10;99.90
43999;DHT22;51319;52.162;5.302;2023-03-12T09:29:45;5.10;99.90
43999;DHT22;51319;52.162;5.302;2023-03-12T09:32:26;5.30;99.90
43999;DHT22;51319;52.162;5.302;2023-03-12T09:34:53;5.40;99.90
43999;DHT22;51319;52.162;5.302;2023-03-12T09:37:20;5.60;99.90
43999;DHT22;51319;52.162;5.302;2023-03-12T09:39:50;5.70;99.90
43999;DHT22;51319;52.162;5.302;2023-03-12T09:42:41;5.80;99.90
43999;DHT22;51319;52.162;5.302;2023-03-12T09:45:20;5.90;99.90
43999;DHT22;51319;52.162;5.302;2023-03-12T09:47:53;5.90;99.90
43999;DHT22;51319;52.162;5.302;2023-03-12T09:55:22;6.00;99.90
43999;DHT22;51319;52.162;5.302;2023-03-12T09:57:50;6.00;99.90
43999;DHT22;51319;52.162;5.302;2023-03-12T10:00:21;6.10;99.90
43999;DHT22;51319;52.162;5.302;2023-03-12T10:02:54;6.20;99.90
43999;DHT22;51319;52.162;5.302;2023-03-12T10:11:15;6.40;99.90
43999;DHT22;51319;52.162;5.302;2023-03-12T10:16:55;6.50;99.90
43999;DHT22;51319;52.162;5.302;2023-03-12T10:27:27;7.00;99.90
43999;DHT22;51319;52.162;5.302;2023-03-12T10:29:57;7.20;99.90
43999;DHT22;51319;52.162;5.302;2023-03-12T10:32:45;7.20;99.90
43999;DHT22;51319;52.162;5.302;2023-03-12T10:35:16;7.50;99.90
43999;DHT22;51319;52.162;5.302;2023-03-12T10:37:58;7.80;99.90
43999;DHT22;51319;52.162;5.302;2023-03-12T10:40:54;8.00;99.90
43999;DHT22;51319;52.162;5.302;2023-03-12T10:51:55;8.40;99.90
43999;DHT22;51319;52.162;5.302;2023-03-12T10:54:28;8.40;99.90
43999;DHT22;51319;52.162;5.302;2023-03-12T10:56:55;8.50;99.90
43999;DHT22;51319;52.162;5.302;2023-03-12T10:59:27;8.50;99.90
43999;DHT22;51319;52.162;5.302;2023-03-12T11:01:54;8.50;99.90
43999;DHT22;51319;52.162;5.302;2023-03-12T11:04:31;8.50;99.90
43999;DHT22;51319;52.162;5.302;2023-03-12T11:07:13;8.50;99.90
43999;DHT22;51319;52.162;5.302;2023-03-12T11:09:42;8.60;99.90
43999;DHT22;51319;52.162;5.302;2023-03-12T11:12:28;8.70;99.90
43999;DHT22;51319;52.162;5.302;2023-03-12T11:14:57;8.70;99.90
43999;DHT22;51319;52.162;5.302;2023-03-12T11:17:28;8.70;99.90
43999;DHT22;51319;52.162;5.302;2023-03-12T11:19:55;8.70;99.90
43999;DHT22;51319;52.162;5.302;2023-03-12T11:22:31;8.70;99.90
43999;DHT22;51319;52.162;5.302;2023-03-12T11:25:00;8.70;99.90
43999;DHT22;51319;52.162;5.302;2023-03-12T11:27:48;8.70;99.90
43999;DHT22;51319;52.162;5.302;2023-03-12T11:30:31;8.70;99.90
43999;DHT22;51319;52.162;5.302;2023-03-12T11:33:02;8.80;99.90
43999;DHT22;51319;52.162;5.302;2023-03-12T11:35:57;8.80;99.90
43999;DHT22;51319;52.162;5.302;2023-03-12T11:46:58;8.90;99.90
43999;DHT22;51319;52.162;5.302;2023-03-12T11:50:12;9.00;99.90
43999;DHT22;51319;52.162;5.302;2023-03-12T12:00:56;9.10;99.90
43999;DHT22;51319;52.162;5.302;2023-03-12T12:11:33;9.30;99.90
43999;DHT22;51319;52.162;5.302;2023-03-12T12:16:56;9.50;99.90
43999;DHT22;51319;52.162;5.302;2023-03-12T12:27:38;9.70;99.90
43999;DHT22;51319;52.162;5.302;2023-03-12T12:30:15;9.90;99.90
43999;DHT22;51319;52.162;5.302;2023-03-12T12:35:26;10.30;99.90
43999;DHT22;51319;52.162;5.302;2023-03-12T12:40:50;10.60;99.90
43999;DHT22;51319;52.162;5.302;2023-03-12T12:43:32;10.50;99.90
43999;DHT22;51319;52.162;5.302;2023-03-12T12:46:11;10.60;99.90
43999;DHT22;51319;52.162;5.302;2023-03-12T12:48:43;10.60;99.90
43999;DHT22;51319;52.162;5.302;2023-03-12T12:51:13;10.50;99.90
43999;DHT22;51319;52.162;5.302;2023-03-12T13:01:40;10.90;99.90
43999;DHT22;51319;52.162;5.302;2023-03-12T13:04:19;11.10;99.90
43999;DHT22;51319;52.162;5.302;2023-03-12T13:07:04;11.10;99.90
43999;DHT22;51319;52.162;5.302;2023-03-12T13:09:57;11.20;99.90
43999;DHT22;51319;52.162;5.302;2023-03-12T13:14:56;11.50;99.90
43999;DHT22;51319;52.162;5.302;2023-03-12T13:20:31;11.50;99.60
43999;DHT22;51319;52.162;5.302;2023-03-12T13:23:19;11.40;98.80
43999;DHT22;51319;52.162;5.302;2023-03-12T13:31:38;11.00;97.40
43999;DHT22;51319;52.162;5.302;2023-03-12T13:36:38;10.90;97.30
43999;DHT22;51319;52.162;5.302;2023-03-12T13:41:48;10.90;97.80
43999;DHT22;51319;52.162;5.302;2023-03-12T13:44:29;11.00;97.80
43999;DHT22;51319;52.162;5.302;2023-03-12T13:49:41;11.50;97.50
43999;DHT22;51319;52.162;5.302;2023-03-12T13:54:40;12.10;96.10
43999;DHT22;51319;52.162;5.302;2023-03-12T13:57:29;12.30;95.20
43999;DHT22;51319;52.162;5.302;2023-03-12T13:59:58;12.60;94.20
43999;DHT22;51319;52.162;5.302;2023-03-12T14:02:39;12.90;93.30
43999;DHT22;51319;52.162;5.302;2023-03-12T14:05:10;13.00;92.40
43999;DHT22;51319;52.162;5.302;2023-03-12T14:10:45;13.70;91.00
43999;DHT22;51319;52.162;5.302;2023-03-12T14:16:32;14.30;86.10
43999;DHT22;51319;52.162;5.302;2023-03-12T14:19:02;14.30;84.00
43999;DHT22;51319;52.162;5.302;2023-03-12T14:21:34;14.20;83.20
43999;DHT22;51319;52.162;5.302;2023-03-12T14:24:05;14.00;81.30
43999;DHT22;51319;52.162;5.302;2023-03-12T14:26:35;13.70;80.50
43999;DHT22;51319;52.162;5.302;2023-03-12T14:29:18;13.60;81.00
43999;DHT22;51319;52.162;5.302;2023-03-12T14:31:47;13.40;79.60
43999;DHT22;51319;52.162;5.302;2023-03-12T14:34:37;13.30;78.40
43999;DHT22;51319;52.162;5.302;2023-03-12T14:37:28;13.10;77.10
43999;DHT22;51319;52.162;5.302;2023-03-12T14:40:01;13.00;76.40
43999;DHT22;51319;52.162;5.302;2023-03-12T14:42:30;13.20;76.30
43999;DHT22;51319;52.162;5.302;2023-03-12T14:47:42;13.20;76.20
43999;DHT22;51319;52.162;5.302;2023-03-12T14:50:19;13.10;76.30
43999;DHT22;51319;52.162;5.302;2023-03-12T14:52:47;13.10;75.90
43999;DHT22;51319;52.162;5.302;2023-03-12T14:55:24;13.00;75.70
43999;DHT22;51319;52.162;5.302;2023-03-12T14:58:16;12.90;75.50
43999;DHT22;51319;52.162;5.302;2023-03-12T15:00:44;12.70;75.00
43999;DHT22;51319;52.162;5.302;2023-03-12T15:03:19;12.50;75.60
43999;DHT22;51319;52.162;5.302;2023-03-12T15:05:47;12.50;75.70
43999;DHT22;51319;52.162;5.302;2023-03-12T15:08:15;12.40;76.20
43999;DHT22;51319;52.162;5.302;2023-03-12T15:11:27;12.50;76.70
43999;DHT22;51319;52.162;5.302;2023-03-12T15:14:07;12.40;76.00
43999;DHT22;51319;52.162;5.302;2023-03-12T15:16:34;12.30;76.30
43999;DHT22;51319;52.162;5.302;2023-03-12T15:19:02;12.30;76.80
43999;DHT22;51319;52.162;5.302;2023-03-12T15:21:34;12.20;77.40
43999;DHT22;51319;52.162;5.302;2023-03-12T15:24:01;12.20;77.60
43999;DHT22;51319;52.162;5.302;2023-03-12T15:26:30;12.20;78.00
43999;DHT22;51319;52.162;5.302;2023-03-12T15:29:24;12.20;79.00
43999;DHT22;51319;52.162;5.302;2023-03-12T15:31:58;12.20;78.70
43999;DHT22;51319;52.162;5.302;2023-03-12T15:34:33;12.10;78.90
43999;DHT22;51319;52.162;5.302;2023-03-12T15:37:18;12.00;79.30
43999;DHT22;51319;52.162;5.302;2023-03-12T15:39:52;12.00;79.70
43999;DHT22;51319;52.162;5.302;2023-03-12T15:42:23;11.90;79.90
43999;DHT22;51319;52.162;5.302;2023-03-12T15:44:59;11.90;80.20
43999;DHT22;51319;52.162;5.302;2023-03-12T15:47:32;11.80;80.40
43999;DHT22;51319;52.162;5.302;2023-03-12T15:50:21;11.80;80.60
43999;DHT22;51319;52.162;5.302;2023-03-12T15:53:02;11.70;80.90
43999;DHT22;51319;52.162;5.302;2023-03-12T15:55:34;11.60;81.10
43999;DHT22;51319;52.162;5.302;2023-03-12T15:58:02;11.60;81.20
43999;DHT22;51319;52.162;5.302;2023-03-12T16:00:42;11.50;81.50
43999;DHT22;51319;52.162;5.302;2023-03-12T16:03:17;11.50;81.80
43999;DHT22;51319;52.162;5.302;2023-03-12T16:05:45;11.50;81.90
43999;DHT22;51319;52.162;5.302;2023-03-12T16:08:20;11.40;81.80
43999;DHT22;51319;52.162;5.302;2023-03-12T16:10:49;11.40;82.00
43999;DHT22;51319;52.162;5.302;2023-03-12T16:13:18;11.40;82.10
43999;DHT22;51319;52.162;5.302;2023-03-12T16:15:47;11.30;82.30
43999;DHT22;51319;52.162;5.302;2023-03-12T16:18:18;11.30;82.40
43999;DHT22;51319;52.162;5.302;2023-03-12T16:20:48;11.30;82.70
43999;DHT22;51319;52.162;5.302;2023-03-12T16:23:16;11.30;83.50
43999;DHT22;51319;52.162;5.302;2023-03-12T16:25:47;11.30;83.00
43999;DHT22;51319;52.162;5.302;2023-03-12T16:28:16;11.20;83.10
43999;DHT22;51319;52.162;5.302;2023-03-12T16:30:47;11.20;83.40
43999;DHT22;51319;52.162;5.302;2023-03-12T16:33:17;11.20;83.60
43999;DHT22;51319;52.162;5.302;2023-03-12T16:35:44;11.20;83.80
43999;DHT22;51319;52.162;5.302;2023-03-12T16:38:12;11.10;84.20
43999;DHT22;51319;52.162;5.302;2023-03-12T16:40:46;11.10;84.60
43999;DHT22;51319;52.162;5.302;2023-03-12T16:43:23;11.00;84.90
43999;DHT22;51319;52.162;5.302;2023-03-12T16:45:51;11.00;85.80
43999;DHT22;51319;52.162;5.302;2023-03-12T16:48:21;11.00;85.50
43999;DHT22;51319;52.162;5.302;2023-03-12T16:50:52;11.00;85.70
43999;DHT22;51319;52.162;5.302;2023-03-12T16:53:20;10.90;86.00
43999;DHT22;51319;52.162;5.302;2023-03-12T16:55:52;10.90;86.40
43999;DHT22;51319;52.162;5.302;2023-03-12T16:58:21;10.90;86.80
43999;DHT22;51319;52.162;5.302;2023-03-12T17:00:50;10.90;87.30
43999;DHT22;51319;52.162;5.302;2023-03-12T17:03:31;10.90;87.50
43999;DHT22;51319;52.162;5.302;2023-03-12T17:06:02;10.80;87.80
43999;DHT22;51319;52.162;5.302;2023-03-12T17:08:29;10.70;88.30
43999;DHT22;51319;52.162;5.302;2023-03-12T17:10:56;10.60;88.90
43999;DHT22;51319;52.162;5.302;2023-03-12T17:13:27;10.60;89.40
43999;DHT22;51319;52.162;5.302;2023-03-12T17:15:55;10.50;89.90
43999;DHT22;51319;52.162;5.302;2023-03-12T17:18:22;10.40;90.10
43999;DHT22;51319;52.162;5.302;2023-03-12T17:20:49;10.30;90.40
43999;DHT22;51319;52.162;5.302;2023-03-12T17:23:18;10.30;90.70
43999;DHT22;51319;52.162;5.302;2023-03-12T17:25:47;10.30;91.00
43999;DHT22;51319;52.162;5.302;2023-03-12T17:28:14;10.30;91.20
43999;DHT22;51319;52.162;5.302;2023-03-12T17:30:42;10.30;91.40
43999;DHT22;51319;52.162;5.302;2023-03-12T17:33:15;10.30;91.50
43999;DHT22;51319;52.162;5.302;2023-03-12T17:35:42;10.30;91.60
43999;DHT22;51319;52.162;5.302;2023-03-12T17:38:11;10.20;91.80
43999;DHT22;51319;52.162;5.302;2023-03-12T17:40:40;10.20;91.90
43999;DHT22;51319;52.162;5.302;2023-03-12T17:43:08;10.10;92.00
43999;DHT22;51319;52.162;5.302;2023-03-12T17:45:35;10.00;92.20
43999;DHT22;51319;52.162;5.302;2023-03-12T17:48:02;9.90;92.50
43999;DHT22;51319;52.162;5.302;2023-03-12T17:50:33;9.90;92.80
43999;DHT22;51319;52.162;5.302;2023-03-12T17:53:02;9.80;93.00
43999;DHT22;51319;52.162;5.302;2023-03-12T17:55:31;9.80;93.20
43999;DHT22;51319;52.162;5.302;2023-03-12T17:57:59;9.80;93.40